Time;durP1;ratioP1;P1;durP2;ratioP2;P2;SDS_P1;SDS_P2;PMS_P1;PMS_P2;Temp;Humidity;BMP_temperature;BMP_pressure;BME280_temperature;BME280_humidity;BME280_pressure;Samples;Min_cycle;Max_cycle;Signal;HPM_P1;HPM_P2
2022/03/04 00:02:03;;;;;;;6.25;4.55;;;21.50;35.90;;;;;;4994702;28;20042;-58
2022/03/04 00:04:30;;;;;;;5.05;4.57;;;21.50;35.80;;;;;;4992599;28;20037;-58
2022/03/04 00:06:55;;;;;;;5.10;4.60;;;21.50;35.80;;;;;;4990510;28;20057;-58
2022/03/04 00:09:21;;;;;;;5.13;4.63;;;21.40;35.70;;;;;;4994439;28;20066;-58
2022/03/04 00:11:50;;;;;;;5.13;4.63;;;21.40;35.80;;;;;;4990995;28;20580;-57
2022/03/04 00:14:15;;;;;;;5.03;4.53;;;21.50;35.80;;;;;;4995542;28;20763;-59
2022/03/04 00:16:41;;;;;;;6.75;5.05;;;21.40;35.70;;;;;;4992928;28;20536;-58
2022/03/04 00:19:07;;;;;;;5.05;4.55;;;21.40;35.70;;;;;;4992352;28;20046;-58
2022/03/04 00:21:44;;;;;;;6.55;4.78;;;21.40;35.70;;;;;;4989794;28;20164;-58
2022/03/04 00:24:11;;;;;;;4.90;4.40;;;21.40;35.60;;;;;;4989852;28;20161;-57
2022/03/04 00:26:38;;;;;;;5.78;4.50;;;21.30;35.60;;;;;;4992873;28;20050;-58
2022/03/04 00:29:05;;;;;;;5.13;4.63;;;21.30;35.60;;;;;;4992608;28;20060;-59
2022/03/04 00:31:31;;;;;;;4.75;4.35;;;21.30;35.60;;;;;;4991431;28;20042;-58
2022/03/04 00:33:58;;;;;;;4.65;4.25;;;21.30;35.60;;;;;;4989954;28;20050;-58
2022/03/04 00:36:23;;;;;;;9.18;4.40;;;21.30;35.50;;;;;;4991625;28;20053;-58
2022/03/04 00:38:54;;;;;;;4.95;3.90;;;21.30;35.50;;;;;;4995048;28;20050;-58
2022/03/04 00:41:20;;;;;;;;;;;21.20;35.50;;;;;;4993460;28;20440;-58
2022/03/04 00:43:46;;;;;;;5.53;4.05;;;21.20;35.30;;;;;;4991358;28;20009;-58
2022/03/04 00:46:13;;;;;;;5.18;4.15;;;21.20;35.60;;;;;;4988885;28;20513;-58
2022/03/04 00:48:39;;;;;;;5.20;4.35;;;21.20;35.60;;;;;;4989958;28;20454;-58
2022/03/04 00:51:05;;;;;;;4.45;4.05;;;21.10;35.50;;;;;;4990095;28;20541;-58
2022/03/04 00:53:31;;;;;;;6.00;3.88;;;21.20;35.50;;;;;;5010006;28;20140;-58
2022/03/04 00:55:57;;;;;;;4.40;4.00;;;21.10;35.40;;;;;;4981644;28;20054;-59
2022/03/04 00:58:23;;;;;;;5.13;4.63;;;21.10;35.40;;;;;;4993691;28;20129;-58
2022/03/04 01:00:49;;;;;;;4.60;4.20;;;21.10;35.40;;;;;;4993818;28;20249;-57
2022/03/04 01:03:14;;;;;;;4.55;3.92;;;21.10;36.20;;;;;;4988575;28;20046;-58
2022/03/04 01:05:40;;;;;;;4.40;3.90;;;21.10;35.40;;;;;;4993811;28;20050;-57
2022/03/04 01:08:06;;;;;;;4.50;3.97;;;21.10;35.40;;;;;;4996701;28;20093;-60
2022/03/04 01:10:31;;;;;;;3.80;3.50;;;21.10;35.40;;;;;;4994617;28;20042;-58
2022/03/04 01:12:57;;;;;;;5.22;3.90;;;21.10;35.40;;;;;;4995122;28;20072;-59
2022/03/04 01:15:22;;;;;;;4.13;3.70;;;21.10;35.40;;;;;;4995898;28;20129;-58
2022/03/04 01:17:48;;;;;;;4.22;3.65;;;21.00;35.30;;;;;;4992934;28;20043;-59
2022/03/04 01:20:14;;;;;;;4.10;3.70;;;21.00;35.30;;;;;;5000693;28;20045;-58
2022/03/04 01:22:40;;;;;;;3.78;3.47;;;21.00;35.40;;;;;;4998817;28;20145;-58
2022/03/04 01:25:06;;;;;;;3.90;3.60;;;21.00;35.30;;;;;;4995209;28;20050;-58
2022/03/04 01:27:32;;;;;;;4.03;3.60;;;21.00;35.30;;;;;;4996004;28;20464;-58
2022/03/04 01:29:57;;;;;;;3.60;3.30;;;21.00;35.40;;;;;;4994457;28;20045;-58
2022/03/04 01:32:23;;;;;;;4.03;3.67;;;21.00;35.40;;;;;;4993676;28;20046;-58
2022/03/04 01:34:48;;;;;;;3.58;3.28;;;20.90;35.40;;;;;;4995758;28;20085;-58
2022/03/04 01:37:14;;;;;;;5.00;3.10;;;20.90;35.30;;;;;;4997073;28;20050;-58
2022/03/04 01:39:40;;;;;;;4.03;3.55;;;21.00;35.40;;;;;;4995456;28;20038;-58
2022/03/04 01:42:06;;;;;;;3.72;3.08;;;20.90;35.40;;;;;;4996515;28;20088;-58
2022/03/04 01:44:31;;;;;;;3.95;3.60;;;20.90;35.40;;;;;;4992114;28;20065;-57
2022/03/04 01:46:58;;;;;;;4.00;3.50;;;20.90;35.30;;;;;;4996174;28;20062;-58
2022/03/04 01:49:23;;;;;;;3.60;3.30;;;20.90;35.40;;;;;;4994592;28;20085;-58
2022/03/04 01:51:49;;;;;;;3.67;3.38;;;20.90;35.30;;;;;;4993975;28;20449;-58
2022/03/04 01:54:14;;;;;;;3.88;3.40;;;20.90;35.50;;;;;;4994845;28;20043;-58
2022/03/04 01:56:40;;;;;;;4.20;3.15;;;20.90;35.40;;;;;;4996117;28;20161;-58
2022/03/04 01:59:06;;;;;;;3.45;3.15;;;20.80;35.40;;;;;;4992494;28;20506;-58
2022/03/04 02:01:33;;;;;;;3.75;3.17;;;20.90;35.50;;;;;;4993541;28;20041;-58
2022/03/04 02:03:59;;;;;;;3.55;3.25;;;20.80;35.40;;;;;;4993993;28;20055;-58
2022/03/04 02:06:25;;;;;;;3.67;3.20;;;20.80;35.40;;;;;;4993655;28;20042;-58
2022/03/04 02:08:50;;;;;;;3.80;3.20;;;20.80;35.50;;;;;;4994366;28;20046;-58
2022/03/04 02:11:16;;;;;;;4.18;3.60;;;20.80;35.50;;;;;;4996192;28;20121;-58
2022/03/04 02:13:43;;;;;;;3.67;3.20;;;20.80;35.50;;;;;;4993720;28;20149;-58
2022/03/04 02:16:34;;;;;;;3.42;3.13;;;20.70;35.50;;;;;;4996345;28;20050;-58
2022/03/04 02:19:01;;;;;;;4.25;3.33;;;20.80;35.40;;;;;;4993681;28;20046;-58
2022/03/04 02:21:30;;;;;;;3.33;3.03;;;20.70;35.50;;;;;;4993420;28;20066;-57
2022/03/04 02:23:55;;;;;;;3.42;3.13;;;20.70;35.40;;;;;;4993699;28;20053;-57
2022/03/04 02:26:21;;;;;;;3.50;3.20;;;20.70;35.40;;;;;;4992316;28;20066;-58
2022/03/04 02:28:47;;;;;;;3.50;3.20;;;20.70;35.40;;;;;;4990286;28;20051;-58
2022/03/04 02:31:17;;;;;;;3.83;3.40;;;20.70;35.40;;;;;;4993904;28;20061;-58
2022/03/04 02:33:43;;;;;;;4.15;3.33;;;20.70;35.50;;;;;;4992766;28;20557;-58
2022/03/04 02:36:09;;;;;;;3.78;3.08;;;20.70;35.50;;;;;;4993437;28;20046;-58
2022/03/04 02:38:34;;;;;;;3.88;3.50;;;20.70;35.50;;;;;;4993711;28;20457;-58
2022/03/04 02:41:00;;;;;;;4.18;2.80;;;20.60;35.40;;;;;;4992915;28;20042;-58
2022/03/04 02:43:26;;;;;;;6.57;3.70;;;20.60;35.40;;;;;;4991328;28;20387;-58
2022/03/04 02:45:52;;;;;;;4.20;3.22;;;20.60;35.40;;;;;;4992708;28;20460;-57
2022/03/04 02:48:18;;;;;;;3.85;3.33;;;20.60;35.40;;;;;;4994805;28;20058;-59
2022/03/04 02:50:43;;;;;;;5.25;3.72;;;20.60;35.40;;;;;;4992872;28;20690;-57
2022/03/04 02:53:09;;;;;;;3.22;2.92;;;20.60;35.40;;;;;;4992937;28;20074;-57
2022/03/04 02:55:34;;;;;;;3.22;2.88;;;20.50;35.30;;;;;;4992313;28;20100;-59
2022/03/04 02:58:00;;;;;;;3.50;3.15;;;20.50;35.30;;;;;;4991726;28;20108;-58
2022/03/04 03:00:26;;;;;;;3.67;3.30;;;20.60;35.40;;;;;;4989444;28;20121;-58
2022/03/04 03:02:51;;;;;;;3.90;3.45;;;20.60;35.40;;;;;;4991954;28;20547;-57
2022/03/04 03:05:17;;;;;;;4.38;3.50;;;20.50;35.30;;;;;;4993046;28;20042;-58
2022/03/04 03:07:43;;;;;;;3.50;3.10;;;20.50;35.30;;;;;;4992893;28;20054;-58
2022/03/04 03:10:09;;;;;;;6.97;4.10;;;20.50;35.30;;;;;;4992533;28;20121;-58
2022/03/04 03:12:35;;;;;;;4.22;3.42;;;20.50;35.30;;;;;;4990728;28;20057;-58
2022/03/04 03:15:01;;;;;;;4.45;3.35;;;20.50;35.30;;;;;;4994297;28;20041;-58
2022/03/04 03:17:26;;;;;;;4.47;3.40;;;20.50;35.30;;;;;;5000724;28;20057;-59
2022/03/04 03:19:52;;;;;;;3.45;3.13;;;20.50;35.30;;;;;;4989226;28;22470;-58
2022/03/04 03:22:19;;;;;;;3.72;3.38;;;20.40;35.20;;;;;;4991374;28;20077;-58
2022/03/04 03:24:45;;;;;;;3.92;3.33;;;20.50;35.20;;;;;;4989851;28;20092;-59
2022/03/04 03:27:10;;;;;;;3.90;3.50;;;20.40;35.10;;;;;;4990491;28;20638;-58
2022/03/04 03:29:36;;;;;;;4.03;3.33;;;20.40;35.10;;;;;;4992734;28;20041;-57
2022/03/04 03:32:03;;;;;;;3.95;3.45;;;20.40;35.10;;;;;;4993302;28;20041;-58
2022/03/04 03:34:28;;;;;;;3.97;3.53;;;20.40;35.10;;;;;;4991731;28;20089;-58
2022/03/04 03:36:54;;;;;;;4.32;3.78;;;20.40;35.10;;;;;;4994506;28;20081;-59
2022/03/04 03:39:20;;;;;;;3.85;3.53;;;20.40;35.10;;;;;;4990285;28;20438;-58
2022/03/04 03:41:45;;;;;;;3.95;3.65;;;20.40;35.10;;;;;;4991502;28;20155;-58
2022/03/04 03:44:11;;;;;;;3.85;3.50;;;20.40;35.10;;;;;;4990997;28;20078;-60
2022/03/04 03:46:36;;;;;;;4.00;3.42;;;20.40;35.00;;;;;;4992844;28;20069;-57
2022/03/04 03:49:02;;;;;;;4.25;3.85;;;20.40;35.10;;;;;;4992557;28;20054;-58
2022/03/04 03:51:28;;;;;;;3.97;3.65;;;20.40;35.10;;;;;;4992783;28;20101;-58
2022/03/04 03:53:53;;;;;;;3.83;3.42;;;20.30;34.90;;;;;;4988056;28;20052;-58
2022/03/04 03:56:19;;;;;;;4.53;4.10;;;20.30;34.90;;;;;;4992376;28;20050;-58
2022/03/04 03:58:44;;;;;;;4.05;3.65;;;20.30;34.90;;;;;;4993406;28;20082;-58
2022/03/04 04:01:10;;;;;;;5.60;3.92;;;20.30;34.90;;;;;;4990402;28;20095;-58
2022/03/04 04:03:35;;;;;;;4.70;3.72;;;20.30;34.90;;;;;;4991554;28;20041;-57
2022/03/04 04:06:02;;;;;;;4.38;3.97;;;20.30;34.90;;;;;;5007615;28;20088;-58
2022/03/04 04:08:27;;;;;;;4.38;3.55;;;20.30;34.90;;;;;;4993354;28;20088;-60
2022/03/04 04:10:53;;;;;;;3.75;3.35;;;20.30;34.90;;;;;;4992597;28;20049;-59
2022/03/04 04:13:19;;;;;;;4.05;3.65;;;20.20;34.90;;;;;;4993147;28;20077;-59
2022/03/04 04:15:45;;;;;;;4.45;3.47;;;20.30;34.90;;;;;;4992429;28;20046;-58
2022/03/04 04:18:10;;;;;;;3.92;3.53;;;20.20;34.80;;;;;;4991238;28;20061;-59
2022/03/04 04:20:36;;;;;;;4.55;4.00;;;20.20;34.80;;;;;;4991780;28;20899;-59
2022/03/04 04:23:02;;;;;;;4.13;3.72;;;20.20;34.80;;;;;;4991404;28;20054;-59
2022/03/04 04:25:28;;;;;;;4.63;4.13;;;20.30;34.80;;;;;;4993513;28;20046;-59
2022/03/04 04:27:53;;;;;;;4.47;4.07;;;20.20;34.70;;;;;;4993100;28;20089;-60
2022/03/04 04:30:19;;;;;;;4.20;3.80;;;20.20;34.70;;;;;;4993877;28;20066;-59
2022/03/04 04:32:45;;;;;;;4.50;4.10;;;20.20;34.70;;;;;;4991962;28;20211;-58
2022/03/04 04:35:10;;;;;;;4.20;3.80;;;20.20;34.70;;;;;;4989510;28;20057;-58
2022/03/04 04:37:36;;;;;;;4.60;3.60;;;20.20;34.70;;;;;;4993943;28;20045;-57
2022/03/04 04:40:04;;;;;;;5.10;4.60;;;20.10;34.60;;;;;;4993146;28;20045;-58
2022/03/04 04:42:30;;;;;;;3.83;3.42;;;20.20;34.60;;;;;;4996261;28;20486;-58
2022/03/04 04:44:56;;;;;;;4.10;3.70;;;20.10;34.60;;;;;;4995177;28;20042;-58
2022/03/04 04:47:21;;;;;;;6.43;4.40;;;20.10;34.60;;;;;;4995049;28;20066;-58
2022/03/04 04:49:47;;;;;;;5.07;4.57;;;20.10;34.50;;;;;;4995444;28;20561;-58
2022/03/04 04:52:13;;;;;;;4.95;4.45;;;20.10;34.50;;;;;;4995149;28;20145;-59
2022/03/04 04:54:38;;;;;;;5.32;4.45;;;20.10;34.50;;;;;;4993000;28;20497;-59
2022/03/04 04:57:04;;;;;;;5.00;4.60;;;20.10;34.50;;;;;;4997281;28;20082;-58
2022/03/04 04:59:30;;;;;;;5.07;4.57;;;20.10;34.50;;;;;;4995778;28;20069;-58
2022/03/04 05:01:56;;;;;;;5.18;4.68;;;20.00;34.40;;;;;;4993170;28;20491;-58
2022/03/04 05:04:21;;;;;;;4.97;4.38;;;20.00;34.40;;;;;;4991528;28;20119;-59
2022/03/04 05:06:47;;;;;;;4.78;4.38;;;20.00;34.40;;;;;;4992987;28;20401;-58
2022/03/04 05:09:13;;;;;;;5.05;4.55;;;20.00;34.40;;;;;;4995746;28;20078;-58
2022/03/04 05:11:38;;;;;;;4.63;4.22;;;20.00;34.40;;;;;;4992076;28;20091;-58
2022/03/04 05:14:04;;;;;;;5.10;4.60;;;20.00;34.40;;;;;;4994477;28;20605;-58
2022/03/04 05:16:29;;;;;;;4.95;4.50;;;20.00;34.30;;;;;;4994081;28;20087;-59
2022/03/04 05:18:55;;;;;;;5.30;4.80;;;20.10;34.40;;;;;;4992025;28;20054;-59
2022/03/04 05:21:20;;;;;;;4.85;4.45;;;20.00;34.40;;;;;;4996797;28;20038;-58
2022/03/04 05:24:02;;;;;;;4.90;4.40;;;20.00;34.30;;;;;;4994148;28;20050;-58
2022/03/04 05:26:30;;;;;;;4.68;4.28;;;20.00;34.30;;;;;;4994927;28;20491;-58
2022/03/04 05:28:57;;;;;;;5.25;4.75;;;20.00;34.40;;;;;;4995282;28;20042;-58
2022/03/04 05:31:22;;;;;;;4.97;4.53;;;19.90;34.30;;;;;;4997680;28;20050;-58
2022/03/04 05:33:48;;;;;;;4.82;4.43;;;19.90;34.30;;;;;;4997476;28;20046;-58
2022/03/04 05:36:14;;;;;;;5.28;4.78;;;20.00;34.30;;;;;;4995591;28;20049;-58
2022/03/04 05:38:40;;;;;;;5.03;4.53;;;19.90;34.30;;;;;;4998302;28;20050;-58
2022/03/04 05:41:05;;;;;;;5.18;4.60;;;20.00;34.30;;;;;;4996902;28;20046;-58
2022/03/04 05:43:31;;;;;;;5.32;4.80;;;19.90;34.30;;;;;;4995450;28;20050;-57
2022/03/04 05:45:57;;;;;;;5.35;4.85;;;19.90;34.30;;;;;;4993267;28;20050;-57
2022/03/04 05:48:22;;;;;;;6.15;5.38;;;19.90;34.30;;;;;;4994580;28;20490;-58
2022/03/04 05:50:48;;;;;;;5.00;4.60;;;19.90;34.20;;;;;;4995113;28;20034;-58
2022/03/04 05:53:14;;;;;;;5.60;5.10;;;19.90;34.30;;;;;;4996050;28;20474;-57
2022/03/04 05:55:40;;;;;;;5.30;4.80;;;19.90;34.20;;;;;;4995695;28;20871;-57
2022/03/04 05:58:05;;;;;;;6.75;5.60;;;19.90;34.20;;;;;;4997018;28;20046;-57
2022/03/04 06:00:31;;;;;;;5.68;5.15;;;19.90;34.20;;;;;;5006317;28;20088;-58
2022/03/04 06:02:57;;;;;;;6.15;5.55;;;19.90;34.20;;;;;;4996198;28;20049;-57
2022/03/04 06:05:24;;;;;;;6.00;5.40;;;20.00;34.20;;;;;;4993852;28;20448;-58
2022/03/04 06:07:50;;;;;;;5.68;4.75;;;20.00;34.20;;;;;;4996216;28;20518;-58
2022/03/04 06:10:15;;;;;;;7.15;5.28;;;19.90;34.20;;;;;;4993588;28;20494;-57
2022/03/04 06:12:41;;;;;;;5.45;4.63;;;20.00;34.20;;;;;;4994942;28;20042;-58
2022/03/04 06:15:07;;;;;;;5.20;4.70;;;20.00;34.30;;;;;;4995727;28;20060;-57
2022/03/04 06:17:32;;;;;;;5.85;4.65;;;20.00;34.20;;;;;;4995436;28;20127;-58
2022/03/04 06:19:58;;;;;;;4.93;4.50;;;20.00;34.40;;;;;;4993626;28;20057;-57
2022/03/04 06:22:23;;;;;;;5.05;4.57;;;20.00;34.40;;;;;;4994876;28;20050;-57
2022/03/04 06:24:49;;;;;;;5.20;4.07;;;20.00;34.40;;;;;;4994590;28;20261;-56
2022/03/04 06:27:15;;;;;;;5.95;4.28;;;20.00;34.40;;;;;;4990367;28;20057;-57
2022/03/04 06:29:40;;;;;;;4.60;3.90;;;20.00;34.40;;;;;;4995520;28;20093;-57
2022/03/04 06:32:07;;;;;;;6.15;4.68;;;20.00;34.50;;;;;;5009318;28;20097;-58
2022/03/04 06:34:32;;;;;;;6.05;4.00;;;20.00;34.50;;;;;;4996205;28;20042;-57
2022/03/04 06:36:58;;;;;;;4.80;4.40;;;20.10;34.70;;;;;;4981542;28;20474;-58
2022/03/04 06:39:24;;;;;;;6.32;3.95;;;20.10;34.80;;;;;;4992846;28;20121;-58
2022/03/04 06:41:49;;;;;;;4.65;4.25;;;20.10;34.80;;;;;;4993451;28;20060;-57
2022/03/04 06:44:15;;;;;;;5.18;4.68;;;20.20;35.00;;;;;;4995944;28;20561;-58
2022/03/04 06:46:41;;;;;;;5.35;3.97;;;20.20;35.00;;;;;;4994106;28;20049;-57
2022/03/04 06:49:10;;;;;;;7.57;4.97;;;20.10;35.00;;;;;;4993991;28;20129;-57
2022/03/04 06:51:37;;;;;;;4.78;4.32;;;20.20;35.10;;;;;;4993303;28;20556;-60
2022/03/04 06:54:02;;;;;;;5.50;4.50;;;20.20;35.00;;;;;;4994561;28;20042;-58
2022/03/04 06:56:28;;;;;;;4.68;4.28;;;20.20;35.10;;;;;;4990008;28;20123;-58
2022/03/04 06:58:54;;;;;;;4.80;4.40;;;20.20;35.20;;;;;;4995360;28;20443;-58
2022/03/04 07:01:19;;;;;;;4.55;4.15;;;20.20;35.20;;;;;;4992000;28;20042;-57
2022/03/04 07:03:45;;;;;;;9.60;4.20;;;20.20;35.30;;;;;;4995142;28;20798;-58
2022/03/04 07:06:10;;;;;;;4.20;3.80;;;20.20;35.30;;;;;;4996228;28;20038;-59
2022/03/04 07:08:37;;;;;;;4.43;4.03;;;20.20;35.30;;;;;;4973365;28;20046;-59
2022/03/04 07:11:03;;;;;;;4.70;4.30;;;20.20;35.30;;;;;;4986125;28;20053;-58
2022/03/04 07:13:29;;;;;;;5.40;4.60;;;20.20;35.20;;;;;;4991507;28;20103;-58
2022/03/04 07:15:55;;;;;;;5.35;4.85;;;20.20;35.20;;;;;;4995875;28;20056;-58
2022/03/04 07:18:23;;;;;;;4.93;4.47;;;20.20;35.20;;;;;;4981318;28;20046;-58
2022/03/04 07:20:51;;;;;;;5.28;4.78;;;20.30;35.30;;;;;;4993556;28;20046;-58
2022/03/04 07:23:20;;;;;;;5.60;5.07;;;20.30;35.20;;;;;;4991257;28;20074;-58
2022/03/04 07:25:45;;;;;;;5.40;4.90;;;20.30;35.20;;;;;;4993362;28;20498;-58
2022/03/04 07:28:11;;;;;;;5.07;4.65;;;20.30;35.10;;;;;;4992553;28;20054;-60
2022/03/04 07:30:36;;;;;;;5.20;4.70;;;20.30;35.90;;;;;;4995596;28;20041;-59
2022/03/04 07:33:02;;;;;;;5.30;4.80;;;20.30;35.20;;;;;;4994583;28;20042;-57
2022/03/04 07:35:28;;;;;;;5.32;4.80;;;20.30;35.10;;;;;;4993267;28;20042;-58
2022/03/04 07:37:53;;;;;;;5.70;4.85;;;20.30;35.10;;;;;;4991435;28;20062;-58
2022/03/04 07:40:19;;;;;;;4.82;4.40;;;20.30;35.00;;;;;;4994062;28;20183;-57
2022/03/04 07:42:45;;;;;;;5.35;4.80;;;20.30;35.10;;;;;;4992816;28;20131;-58
2022/03/04 07:45:12;;;;;;;5.60;5.10;;;20.30;35.00;;;;;;4989533;28;20275;-57
2022/03/04 07:47:39;;;;;;;5.18;4.68;;;20.30;35.10;;;;;;4994072;28;20490;-57
2022/03/04 07:50:07;;;;;;;5.97;5.38;;;20.30;35.10;;;;;;4994600;28;20053;-58
2022/03/04 07:52:34;;;;;;;6.72;4.88;;;20.30;35.20;;;;;;4989525;28;20053;-58
2022/03/04 07:55:02;;;;;;;5.93;5.18;;;20.30;35.20;;;;;;4995796;28;20057;-58
2022/03/04 07:57:28;;;;;;;8.45;5.35;;;20.30;35.30;;;;;;4990753;28;20510;-58
2022/03/04 07:59:54;;;;;;;5.38;4.88;;;20.30;35.40;;;;;;4990930;28;20041;-57
2022/03/04 08:02:20;;;;;;;7.30;4.95;;;20.30;35.50;;;;;;4992009;28;20045;-59
2022/03/04 08:04:46;;;;;;;5.45;4.95;;;20.30;35.50;;;;;;5007752;28;20423;-58
2022/03/04 08:07:13;;;;;;;9.70;5.32;;;20.30;35.60;;;;;;4988209;28;20085;-58
2022/03/04 08:09:39;;;;;;;6.10;5.50;;;20.40;35.80;;;;;;4992425;28;20041;-57
2022/03/04 08:12:06;;;;;;;6.50;5.80;;;20.40;35.80;;;;;;4992153;28;20061;-58
2022/03/04 08:14:32;;;;;;;6.65;6.00;;;20.40;35.90;;;;;;4989251;28;20592;-59
2022/03/04 08:16:57;;;;;;;6.30;5.55;;;20.40;36.70;;;;;;4993714;28;20078;-58
2022/03/04 08:19:23;;;;;;;5.80;5.30;;;20.40;36.00;;;;;;4990498;28;20119;-58
2022/03/04 08:21:48;;;;;;;5.78;5.28;;;20.40;36.00;;;;;;4990264;28;20950;-58
2022/03/04 08:24:14;;;;;;;6.20;5.57;;;20.40;36.00;;;;;;4991121;28;20156;-57
2022/03/04 08:26:41;;;;;;;6.25;5.65;;;20.40;36.10;;;;;;4974278;28;20137;-58
2022/03/04 08:29:08;;;;;;;6.93;6.25;;;20.40;36.10;;;;;;4992646;28;20062;-58
2022/03/04 08:31:34;;;;;;;7.00;6.30;;;20.40;36.10;;;;;;4993678;28;20056;-58
2022/03/04 08:33:59;;;;;;;6.40;5.80;;;20.40;36.10;;;;;;4991733;28;20057;-57
2022/03/04 08:36:25;;;;;;;6.22;5.65;;;20.40;36.10;;;;;;4992311;28;20042;-58
2022/03/04 08:38:50;;;;;;;6.45;5.85;;;20.40;36.10;;;;;;4993471;28;20410;-58
2022/03/04 08:41:16;;;;;;;6.15;5.63;;;20.40;36.10;;;;;;4990988;28;20073;-58
2022/03/04 08:43:42;;;;;;;6.68;5.97;;;20.40;36.20;;;;;;4992399;28;20104;-58
2022/03/04 08:46:11;;;;;;;6.53;5.90;;;20.40;36.20;;;;;;5006880;28;20068;-57
2022/03/04 08:48:36;;;;;;;6.75;5.85;;;20.40;36.30;;;;;;4987108;28;20110;-57
2022/03/04 08:51:02;;;;;;;8.43;6.95;;;20.40;36.30;;;;;;4991849;28;20140;-58
2022/03/04 08:53:28;;;;;;;6.88;6.18;;;20.50;36.40;;;;;;4990685;28;20541;-58
2022/03/04 08:55:55;;;;;;;6.60;6.00;;;20.40;36.30;;;;;;4989416;28;20061;-56
2022/03/04 08:58:21;;;;;;;6.85;6.15;;;20.50;36.40;;;;;;4991061;28;20054;-56
2022/03/04 09:00:46;;;;;;;6.82;6.07;;;20.50;36.40;;;;;;4992442;28;20047;-57
2022/03/04 09:03:12;;;;;;;7.10;6.40;;;20.50;36.40;;;;;;4991309;28;20057;-56
2022/03/04 09:05:38;;;;;;;6.68;6.07;;;20.50;36.40;;;;;;4992984;28;20049;-57
2022/03/04 09:08:04;;;;;;;6.97;6.38;;;20.50;36.40;;;;;;4992084;28;20964;-56
2022/03/04 09:10:30;;;;;;;8.73;6.55;;;20.50;36.40;;;;;;4991383;28;21592;-56
2022/03/04 09:12:55;;;;;;;6.57;5.97;;;20.50;36.60;;;;;;4993060;28;20065;-57
2022/03/04 09:15:21;;;;;;;7.80;7.00;;;20.50;36.60;;;;;;4989527;28;20046;-57
2022/03/04 09:17:47;;;;;;;7.40;6.70;;;20.50;36.70;;;;;;4991629;28;20046;-57
2022/03/04 09:20:14;;;;;;;7.72;7.03;;;20.50;36.70;;;;;;4989924;28;20042;-57
2022/03/04 09:22:40;;;;;;;7.55;6.85;;;20.60;36.80;;;;;;5008312;28;20064;-57
2022/03/04 09:25:07;;;;;;;7.72;7.03;;;20.50;36.80;;;;;;4993010;28;20817;-57
2022/03/04 09:27:32;;;;;;;7.80;7.00;;;20.60;36.90;;;;;;4991295;28;20057;-57
2022/03/04 09:29:58;;;;;;;8.02;7.22;;;20.50;36.90;;;;;;4993875;28;20062;-58
2022/03/04 09:32:24;;;;;;;7.80;7.00;;;20.50;36.90;;;;;;4994010;28;20049;-57
2022/03/04 09:34:50;;;;;;;7.47;6.68;;;20.50;36.80;;;;;;4980055;28;20054;-57
2022/03/04 09:37:16;;;;;;;7.22;6.47;;;20.60;36.90;;;;;;4999613;28;20038;-57
2022/03/04 09:39:42;;;;;;;7.65;6.85;;;20.60;36.90;;;;;;5000474;28;20108;-57
2022/03/04 09:42:08;;;;;;;7.38;6.68;;;20.60;36.90;;;;;;4994893;28;20050;-57
2022/03/04 09:44:34;;;;;;;7.35;6.65;;;20.60;36.80;;;;;;4991907;28;20049;-57
2022/03/04 09:47:01;;;;;;;7.95;7.20;;;20.60;36.90;;;;;;4996870;28;20089;-57
2022/03/04 09:49:36;;;;;;;7.45;6.65;;;20.60;36.90;;;;;;4995660;28;20046;-57
2022/03/04 09:52:06;;;;;;;8.40;7.18;;;20.60;36.90;;;;;;4995840;28;20046;-57
2022/03/04 09:54:32;;;;;;;7.57;6.88;;;20.60;36.90;;;;;;4995620;28;20078;-57
2022/03/04 09:56:58;;;;;;;7.30;6.60;;;20.70;36.90;;;;;;4996535;28;20491;-58
2022/03/04 09:59:24;;;;;;;7.50;6.80;;;20.60;36.90;;;;;;4992517;28;20049;-57
2022/03/04 10:01:50;;;;;;;8.60;6.93;;;20.70;37.60;;;;;;4994057;28;20786;-57
2022/03/04 10:04:16;;;;;;;7.97;6.90;;;20.70;36.90;;;;;;4995645;28;20042;-57
2022/03/04 10:06:48;;;;;;;7.15;6.45;;;20.70;36.90;;;;;;4996041;28;20038;-58
2022/03/04 10:09:46;;;;;;;7.38;6.68;;;20.70;36.80;;;;;;4996708;28;20073;-58
2022/03/04 10:12:14;;;;;;;7.07;6.20;;;20.70;36.80;;;;;;4993054;28;20060;-58
2022/03/04 10:14:56;;;;;;;7.32;6.55;;;20.70;36.80;;;;;;4993282;28;20395;-58
2022/03/04 10:17:21;;;;;;;7.85;7.03;;;20.70;36.80;;;;;;4992305;28;20100;-58
2022/03/04 10:19:53;;;;;;;7.43;6.70;;;20.70;36.80;;;;;;4993249;28;20465;-58
2022/03/04 10:22:19;;;;;;;9.63;6.88;;;20.70;36.90;;;;;;4993729;28;20063;-57
2022/03/04 10:24:44;;;;;;;7.93;7.07;;;20.70;36.90;;;;;;4994019;28;20056;-58
2022/03/04 10:27:15;;;;;;;9.20;6.90;;;20.70;37.10;;;;;;4992468;28;20161;-57
2022/03/04 10:29:49;;;;;;;8.05;6.95;;;20.80;37.40;;;;;;4996179;28;20498;-58
2022/03/04 10:32:26;;;;;;;7.40;6.70;;;20.80;37.30;;;;;;4994463;28;20054;-58
2022/03/04 10:35:01;;;;;;;8.43;7.15;;;20.80;38.00;;;;;;4995472;28;20466;-57
2022/03/04 10:37:52;;;;;;;7.97;7.18;;;20.80;37.30;;;;;;4991218;28;20054;-58
2022/03/04 10:40:23;;;;;;;7.80;7.10;;;20.80;37.30;;;;;;4990150;28;20720;-58
2022/03/04 10:43:04;;;;;;;7.82;7.07;;;20.80;37.40;;;;;;4992839;28;20042;-58
2022/03/04 10:45:40;;;;;;;8.38;7.53;;;20.80;37.40;;;;;;4997841;28;20050;-58
2022/03/04 10:48:08;;;;;;;8.65;7.05;;;20.80;37.50;;;;;;4991828;28;20054;-58
2022/03/04 10:51:04;;;;;;;8.40;7.40;;;20.80;37.50;;;;;;4992909;28;20445;-58
2022/03/04 10:53:32;;;;;;;8.32;7.47;;;20.80;37.50;;;;;;4995807;28;20046;-57
2022/03/04 10:56:04;;;;;;;8.80;7.93;;;20.90;37.60;;;;;;4989115;28;20046;-59
2022/03/04 10:58:34;;;;;;;8.40;7.53;;;20.90;37.80;;;;;;4995095;28;20394;-57
2022/03/04 11:01:18;;;;;;;9.77;8.30;;;20.90;37.90;;;;;;4993343;28;20095;-57
2022/03/04 11:03:43;;;;;;;8.57;7.40;;;20.90;38.20;;;;;;4992226;28;20054;-59
2022/03/04 11:06:11;;;;;;;8.57;7.70;;;20.90;38.60;;;;;;4995645;28;20050;-59
2022/03/04 11:08:37;;;;;;;8.88;7.32;;;20.90;39.00;;;;;;4990379;28;20072;-60
2022/03/04 11:11:05;;;;;;;9.15;7.80;;;20.90;38.70;;;;;;4995118;28;20060;-60
2022/03/04 11:13:32;;;;;;;9.02;7.63;;;20.90;38.40;;;;;;4994272;28;20468;-60
2022/03/04 11:15:58;;;;;;;8.38;7.55;;;20.90;38.40;;;;;;4994224;28;20057;-60
2022/03/04 11:18:24;;;;;;;9.95;7.20;;;20.90;38.50;;;;;;4994237;28;20054;-59
2022/03/04 11:20:52;;;;;;;9.10;8.02;;;20.90;38.50;;;;;;4993803;28;20034;-59
2022/03/04 11:23:20;;;;;;;8.63;7.43;;;21.00;38.70;;;;;;4991141;28;20090;-62
2022/03/04 11:25:56;;;;;;;12.80;8.18;;;20.90;38.50;;;;;;4993593;28;20134;-60
2022/03/04 11:28:25;;;;;;;9.55;8.23;;;20.90;38.60;;;;;;4991332;28;20042;-59
2022/03/04 11:30:56;;;;;;;9.02;7.97;;;21.00;38.70;;;;;;5009163;28;20030;-59
2022/03/04 11:33:33;;;;;;;8.82;7.55;;;21.00;38.80;;;;;;4993212;28;20049;-59
2022/03/04 11:36:03;;;;;;;9.02;8.02;;;21.00;38.80;;;;;;4992902;28;20054;-60
2022/03/04 11:38:44;;;;;;;8.50;7.65;;;21.00;38.90;;;;;;4990451;28;20119;-60
2022/03/04 11:41:11;;;;;;;9.38;8.43;;;21.00;38.90;;;;;;4992932;28;20478;-59
2022/03/04 11:43:48;;;;;;;9.77;8.27;;;21.00;38.90;;;;;;4993270;28;20038;-59
2022/03/04 11:46:22;;;;;;;10.35;8.10;;;21.00;38.90;;;;;;4992623;28;20053;-60
2022/03/04 11:49:08;;;;;;;9.45;8.15;;;21.00;39.00;;;;;;4993376;28;20844;-60
2022/03/04 11:51:34;;;;;;;10.05;8.05;;;21.00;39.00;;;;;;4990155;28;20612;-59
2022/03/04 11:54:25;;;;;;;9.98;8.23;;;21.00;39.00;;;;;;4992424;28;20046;-59
2022/03/04 11:56:53;;;;;;;9.70;8.25;;;21.00;39.00;;;;;;4993887;28;20398;-59
2022/03/04 11:59:21;;;;;;;10.82;8.02;;;21.00;38.90;;;;;;4993819;28;20046;-59
2022/03/04 12:01:48;;;;;;;9.10;8.20;;;21.00;39.00;;;;;;4992612;28;20053;-59
2022/03/04 12:04:17;;;;;;;8.73;7.82;;;21.00;38.80;;;;;;4992550;28;20745;-59
2022/03/04 12:07:03;;;;;;;8.85;7.88;;;21.00;38.80;;;;;;4991877;28;20050;-59
2022/03/04 12:09:30;;;;;;;8.02;6.93;;;21.00;38.70;;;;;;4991605;28;20049;-59
2022/03/04 12:12:11;;;;;;;7.97;7.25;;;21.00;38.70;;;;;;4992574;28;20030;-61
2022/03/04 12:14:41;;;;;;;8.43;7.40;;;21.10;38.60;;;;;;5009106;28;20049;-60
2022/03/04 12:17:07;;;;;;;8.88;7.63;;;21.00;38.50;;;;;;4993649;28;20050;-59
2022/03/04 12:19:36;;;;;;;8.30;7.50;;;21.10;38.60;;;;;;4996058;28;20646;-59
2022/03/04 12:22:03;;;;;;;9.30;8.40;;;21.00;38.40;;;;;;4991487;28;20044;-59
2022/03/04 12:24:33;;;;;;;8.52;7.65;;;21.10;38.30;;;;;;4991550;28;20034;-60
2022/03/04 12:27:00;;;;;;;8.05;7.22;;;21.10;38.30;;;;;;4993294;28;20053;-59
2022/03/04 12:29:42;;;;;;;8.70;7.82;;;21.10;38.20;;;;;;4990742;28;20046;-59
2022/03/04 12:32:09;;;;;;;9.02;8.10;;;21.10;38.60;;;;;;4993450;28;20050;-59
2022/03/04 12:34:37;;;;;;;8.80;7.90;;;21.10;38.10;;;;;;4990951;28;20149;-59
2022/03/04 12:37:10;;;;;;;7.63;6.85;;;21.10;38.00;;;;;;4992241;28;20064;-59
2022/03/04 12:39:37;;;;;;;10.88;7.90;;;21.10;38.00;;;;;;4990278;28;20045;-59
2022/03/04 12:42:06;;;;;;;8.90;8.00;;;21.10;37.90;;;;;;4995672;28;20533;-59
2022/03/04 12:44:31;;;;;;;8.55;7.75;;;21.10;37.80;;;;;;4989277;28;20382;-60
2022/03/04 12:46:57;;;;;;;7.82;7.07;;;21.10;37.90;;;;;;4987314;28;20111;-59
2022/03/04 12:49:30;;;;;;;8.07;7.28;;;21.10;38.00;;;;;;4991734;28;20050;-60